Latest Weather Observations for Rosslyn Bay Harbour

IDQ60801

Issued at 8:32 pm EST Thursday 28 July 2016 (issued every 30 minutes, with the page automatically refreshed every 10 minutes)

About weather observations | Map of weather stations | Latest weather observations for QLD | Other Formats
Station Details ID: 033208 Name: ROSSLYN BAY NTC AWS Lat: -23.16 Lon: 150.79 Height: 0.0 m
Data from the previous 72 hours. | See also: Recent months for locations in Queensland
Date/Time
EST
Temp
°C
App
Temp
°C
Dew
Point
°C
Rel
Hum
%
Delta-T
°C
Wind Press
QNH
hPa
Press
MSL
hPa
Rain since
9am
mm
Dir  Spd
km/h
Gust
km/h
Spd
kts
Gust
kts
28/08:30pm 19.8 - - - - S 13 20 7 11 1022.1 1022.1 -
28/08:00pm 19.7 - - - - S 11 19 6 10 1022.0 1022.0 -
28/07:30pm 19.6 - - - - S 11 19 6 10 1021.8 1021.8 -
28/07:00pm 19.6 - - - - S 13 20 7 11 1021.7 1021.7 -
28/06:30pm 19.3 - - - - S 9 17 5 9 1021.6 1021.6 -
28/06:00pm 19.2 - - - - SSW 7 13 4 7 1021.4 1021.4 -
28/05:30pm 19.0 - - - - S 9 15 5 8 1021.0 1021.0 -
28/05:00pm 19.0 - - - - S 7 15 4 8 1020.7 1020.7 -
28/04:30pm 19.3 - - - - S 9 15 5 8 1020.6 1020.6 -
28/04:00pm 19.3 - - - - S 7 15 4 8 1020.2 1020.2 -
28/03:30pm 19.4 - - - - SSW 7 13 4 7 1020.1 1020.1 -
28/03:00pm 19.4 - - - - S 11 20 6 11 1020.2 1020.2 -
28/02:30pm 19.0 - - - - S 13 19 7 10 1020.5 1020.5 -
28/02:00pm 18.6 - - - - S 13 22 7 12 1020.8 1020.8 -
28/01:30pm 18.4 - - - - S 13 22 7 12 1021.0 1021.0 -
28/01:00pm 18.1 - - - - S 13 24 7 13 1021.5 1021.5 -
28/12:30pm 18.1 - - - - S 17 26 9 14 1022.0 1022.0 -
28/12:00pm 17.9 - - - - S 15 26 8 14 1022.5 1022.5 -
28/11:30am 17.8 - - - - S 15 28 8 15 1022.8 1022.8 -
28/11:00am 17.7 - - - - S 15 28 8 15 1023.0 1023.0 -
28/10:30am 17.7 - - - - S 13 26 7 14 1023.3 1023.3 -
28/10:00am 18.0 - - - - S 15 35 8 19 1023.6 1023.6 -
28/09:30am 17.8 - - - - S 13 28 7 15 1023.6 1023.6 -
28/09:00am 16.9 - - - - SSW 9 17 5 9 1023.5 1023.5 -
28/08:30am 16.2 - - - - SSW 9 17 5 9 1023.5 1023.5 -
28/08:00am 15.0 - - - - SSW 7 13 4 7 1023.4 1023.4 -
28/07:30am 14.7 - - - - SSW 7 15 4 8 1023.0 1023.0 -
28/07:00am 13.8 - - - - SSW 4 7 2 4 1022.5 1022.5 -
28/06:30am 13.7 - - - - SSW 4 9 2 5 1022.1 1022.1 -
28/06:00am 14.0 - - - - S 2 6 1 3 1021.7 1021.7 -
28/05:30am 14.1 - - - - SW 2 6 1 3 1021.5 1021.5 -
28/05:00am 14.5 - - - - S 4 7 2 4 1021.3 1021.3 -
28/04:30am 14.9 - - - - SSW 2 4 1 2 1021.1 1021.1 -
28/04:00am 14.7 - - - - SSW 4 6 2 3 1021.0 1021.0 -
28/03:30am 14.9 - - - - SSW 6 9 3 5 1021.2 1021.2 -
28/03:00am 15.1 - - - - SSW 7 11 4 6 1021.2 1021.2 -
28/02:30am 15.7 - - - - SSW 9 13 5 7 1021.1 1021.1 -
28/02:00am 15.6 - - - - SSW 11 19 6 10 1021.1 1021.1 -
28/01:30am 15.6 - - - - SSW 11 15 6 8 1021.2 1021.2 -
28/01:00am 15.8 - - - - SSW 9 17 5 9 1021.4 1021.4 -
28/12:30am 16.1 - - - - SSW 11 17 6 9 1021.6 1021.6 -
28/12:00am 16.6 - - - - SSW 9 13 5 7 1021.3 1021.3 -
 
Date/Time
EST
Temp
°C
App
Temp
°C
Dew
Point
°C
Rel
Hum
%
Delta-T
°C
Wind Press
QNH
hPa
Press
MSL
hPa
Rain since
9am
mm
Dir  Spd
km/h
Gust
km/h
Spd
kts
Gust
kts
27/11:30pm 16.7 - - - - SSW 6 7 3 4 1021.4 1021.4 -
27/11:00pm 16.9 - - - - SSW 7 9 4 5 1021.2 1021.2 -
27/10:30pm 17.9 - - - - SSW 7 11 4 6 1021.0 1021.0 -
27/10:00pm 17.8 - - - - SSW 9 15 5 8 1020.9 1020.9 -
27/09:30pm 18.6 - - - - SSW 11 17 6 9 1020.7 1020.7 -
27/09:00pm 19.0 - - - - SSW 11 17 6 9 1020.5 1020.5 -
27/08:30pm 18.9 - - - - SSW 13 19 7 10 1020.3 1020.3 -
27/08:00pm 19.0 - - - - SSW 11 15 6 8 1020.0 1020.0 -
27/07:30pm 19.8 - - - - SSW 11 17 6 9 1019.4 1019.4 -
27/07:00pm 20.6 - - - - SSW 11 20 6 11 1019.1 1019.1 -
27/06:30pm 21.4 - - - - SSW 11 17 6 9 1018.7 1018.7 -
27/06:00pm 21.8 - - - - SSW 11 15 6 8 1018.4 1018.4 -
27/05:30pm 22.3 - - - - SW 11 17 6 9 1018.2 1018.2 -
27/05:00pm 23.4 - - - - SSW 13 19 7 10 1017.9 1017.9 -
27/04:30pm 24.1 - - - - SSW 11 19 6 10 1017.4 1017.4 -
27/04:00pm 24.3 - - - - SSW 15 24 8 13 1016.8 1016.8 -
27/03:30pm 23.3 - - - - SSE 6 13 3 7 1016.5 1016.5 -
27/03:00pm 23.2 - - - - NE 6 9 3 5 1016.4 1016.4 -
27/02:30pm 22.4 - - - - ENE 6 9 3 5 1016.7 1016.7 -
27/02:00pm 22.4 - - - - ENE 4 11 2 6 1016.8 1016.8 -
27/01:30pm 22.2 - - - - NE 7 13 4 7 1017.1 1017.1 -
27/01:00pm 21.4 - - - - WSW 4 9 2 5 1017.4 1017.4 -
27/12:30pm 21.3 - - - - ENE 6 13 3 7 1017.8 1017.8 -
27/12:00pm 21.1 - - - - WSW 2 7 1 4 1018.1 1018.1 -
27/11:30am 20.1 - - - - S 11 17 6 9 1018.5 1018.5 -
27/11:00am 19.9 - - - - S 9 17 5 9 1018.9 1018.9 -
27/10:30am 19.7 - - - - S 11 15 6 8 1019.4 1019.4 -
27/10:00am 19.7 - - - - SSE 6 11 3 6 1019.7 1019.7 -
27/09:30am 19.0 - - - - SSE 4 7 2 4 1019.9 1019.9 -
27/09:00am 18.8 - - - - SSW 6 9 3 5 1019.9 1019.9 -
27/08:30am 17.9 - - - - SSW 9 17 5 9 1019.8 1019.8 -
27/08:00am 17.1 - - - - SSW 4 11 2 6 1019.4 1019.4 -
27/07:30am 16.0 - - - - S 6 7 3 4 1019.1 1019.1 -
27/07:00am 15.7 - - - - SSW 4 7 2 4 1018.7 1018.7 -
27/06:30am 15.4 - - - - S 6 9 3 5 1018.3 1018.3 -
27/06:00am 16.1 - - - - W 2 4 1 2 1018.0 1018.0 -
27/05:30am 16.1 - - - - SW 2 2 1 1 1018.2 1018.2 -
27/05:00am 16.1 - - - - SW 4 6 2 3 1018.1 1018.1 -
27/04:30am 16.4 - - - - S 6 9 3 5 1018.1 1018.1 -
27/04:00am 16.7 - - - - S 7 11 4 6 1018.1 1018.1 -
27/03:30am 16.7 - - - - S 6 9 3 5 1018.1 1018.1 -
27/03:00am 17.1 - - - - S 4 7 2 4 1018.0 1018.0 -
27/02:30am 16.9 - - - - WSW 2 4 1 2 1018.3 1018.3 -
27/02:00am 17.1 - - - - SSW 4 6 2 3 1018.2 1018.2 -
27/01:30am 17.0 - - - - S 7 13 4 7 1018.4 1018.4 -
27/01:00am 17.3 - - - - S 6 11 3 6 1018.5 1018.5 -
27/12:30am 18.0 - - - - S 4 9 2 5 1018.5 1018.5 -
27/12:00am 18.0 - - - - S 4 6 2 3 1018.4 1018.4 -
 
Date/Time
EST
Temp
°C
App
Temp
°C
Dew
Point
°C
Rel
Hum
%
Delta-T
°C
Wind Press
QNH
hPa
Press
MSL
hPa
Rain since
9am
mm
Dir  Spd
km/h
Gust
km/h
Spd
kts
Gust
kts
26/11:30pm 17.9 - - - - S 4 7 2 4 1018.4 1018.4 -
26/11:00pm 17.9 - - - - S 7 11 4 6 1018.4 1018.4 -
26/10:30pm 18.3 - - - - S 7 11 4 6 1018.5 1018.5 -
26/10:00pm 18.5 - - - - S 7 9 4 5 1018.4 1018.4 -
26/09:30pm 18.4 - - - - S 7 11 4 6 1018.3 1018.3 -
26/09:00pm 18.7 - - - - S 7 7 4 4 1018.2 1018.2 -
26/08:30pm 19.2 - - - - SSE 4 9 2 5 1018.0 1018.0 -
26/08:00pm 20.3 - - - - WSW 2 6 1 3 1017.7 1017.7 -
26/07:30pm 20.5 - - - - WSW 2 7 1 4 1017.6 1017.6 -
26/07:00pm 20.6 - - - - E 4 9 2 5 1017.3 1017.3 -
26/06:30pm 20.7 - - - - ENE 4 11 2 6 1016.9 1016.9 -
26/06:00pm 20.6 - - - - E 6 13 3 7 1016.6 1016.6 -
26/05:30pm 20.8 - - - - ENE 7 17 4 9 1016.4 1016.4 -
26/05:00pm 21.4 - - - - E 2 9 1 5 1016.4 1016.4 -
26/04:30pm 21.5 - - - - ENE 7 19 4 10 1016.2 1016.2 -
26/04:00pm 21.7 - - - - WNW 4 11 2 6 1016.2 1016.2 -
26/03:30pm 21.4 - - - - SW 4 9 2 5 1016.1 1016.1 -
26/03:00pm 21.4 - - - - S 7 15 4 8 1016.3 1016.3 -
26/02:30pm 21.1 - - - - S 7 15 4 8 1016.4 1016.4 -
26/02:00pm 20.8 - - - - S 7 13 4 7 1016.6 1016.6 -
26/01:30pm 20.6 - - - - S 9 13 5 7 1016.9 1016.9 -
26/01:00pm 20.1 - - - - S 9 17 5 9 1016.9 1016.9 -
26/12:30pm 19.7 - - - - S 9 17 5 9 1017.5 1017.5 -
26/12:00pm 19.6 - - - - S 11 17 6 9 1018.1 1018.1 -
26/11:30am 19.5 - - - - S 11 20 6 11 1018.6 1018.6 -
26/11:00am 19.4 - - - - S 11 20 6 11 1018.8 1018.8 -
26/10:30am 19.4 - - - - S 11 22 6 12 1019.2 1019.2 -
26/10:00am 19.0 - - - - S 11 22 6 12 1019.4 1019.4 -
26/09:30am 19.0 - - - - S 11 20 6 11 1019.4 1019.4 -
26/09:00am 18.3 - - - - S 7 19 4 10 1019.3 1019.3 -
26/08:30am 17.8 - - - - SSW 9 17 5 9 1019.2 1019.2 -
26/08:00am 16.5 - - - - SSW 7 13 4 7 1019.0 1019.0 -
26/07:30am 15.8 - - - - SSW 4 7 2 4 1018.8 1018.8 -
26/07:00am 15.2 - - - - S 6 9 3 5 1018.6 1018.6 -
26/06:30am 15.3 - - - - SSW 7 11 4 6 1018.5 1018.5 -
26/06:00am 15.2 - - - - SSW 7 13 4 7 1018.0 1018.0 -
26/05:30am 15.7 - - - - S 6 9 3 5 1017.5 1017.5 -
26/05:00am 15.9 - - - - S 6 9 3 5 1017.4 1017.4 -
26/04:30am 16.4 - - - - SSE 6 9 3 5 1017.2 1017.2 -
26/04:00am 16.2 - - - - SSE 7 9 4 5 1017.0 1017.0 -
26/03:30am 16.5 - - - - S 7 9 4 5 1016.9 1016.9 -
26/03:00am 16.5 - - - - S 7 9 4 5 1017.1 1017.1 -
26/02:30am 16.6 - - - - S 6 9 3 5 1017.3 1017.3 -
26/02:00am 17.3 - - - - SSW 4 6 2 3 1017.5 1017.5 -
26/01:30am 17.3 - - - - S 4 7 2 4 1017.8 1017.8 -
26/01:00am 17.7 - - - - S 4 6 2 3 1017.9 1017.9 -
26/12:30am 19.1 - - - - S 2 4 1 2 1017.9 1017.9 -
26/12:00am 18.3 - - - - SSW 2 2 1 1 1017.9 1017.9 -
 
Date/Time
EST
Temp
°C
App
Temp
°C
Dew
Point
°C
Rel
Hum
%
Delta-T
°C
Wind Press
QNH
hPa
Press
MSL
hPa
Rain since
9am
mm
Dir  Spd
km/h
Gust
km/h
Spd
kts
Gust
kts
25/11:30pm 18.4 - - - - W 2 4 1 2 1017.7 1017.7 -
25/11:00pm 19.2 - - - - WSW 2 4 1 2 1017.8 1017.8 -
25/10:30pm 19.3 - - - - SW 2 4 1 2 1017.9 1017.9 -
25/10:00pm 18.6 - - - - WSW 2 4 1 2 1017.8 1017.8 -
25/09:30pm 19.2 - - - - SSW 2 4 1 2 1017.7 1017.7 -
25/09:00pm 19.4 - - - - SSW 2 4 1 2 1017.8 1017.8 -

Other Formats:

Comma delimited format used in spreadsheet applications
http://www.bom.gov.au/fwo/IDQ60801/IDQ60801.95298.axf

JavaScript Object Notation format (JSON) in row-major order
http://www.bom.gov.au/fwo/IDQ60801/IDQ60801.95298.json